createdAt,value
2018-09-15T00:00:45.309Z,15.83
2018-09-15T00:01:45.301Z,15.76
2018-09-15T00:02:45.294Z,15.78
2018-09-15T00:03:45.288Z,15.76
2018-09-15T00:04:45.030Z,15.67
2018-09-15T00:05:45.282Z,15.68
2018-09-15T00:06:45.272Z,15.64
2018-09-15T00:07:45.263Z,15.64
2018-09-15T00:08:45.263Z,15.49
2018-09-15T00:09:45.262Z,15.54
2018-09-15T00:10:45.250Z,15.51
2018-09-15T00:11:44.996Z,15.5
2018-09-15T00:12:44.995Z,15.41
2018-09-15T00:13:45.236Z,15.38
2018-09-15T00:14:45.233Z,15.31
2018-09-15T00:15:45.221Z,15.31
2018-09-15T00:16:45.216Z,15.19
2018-09-15T00:17:45.212Z,15.21
2018-09-15T00:18:44.953Z,15.16
2018-09-15T00:19:45.203Z,14.98
2018-09-15T00:20:45.201Z,15.06
2018-09-15T00:21:45.195Z,15.02
2018-09-15T00:22:44.936Z,14.95
2018-09-15T00:23:45.178Z,14.83
2018-09-15T00:24:44.919Z,14.83
2018-09-15T00:25:44.911Z,14.89
2018-09-15T00:26:45.162Z,14.8
2018-09-15T00:27:45.152Z,14.81
2018-09-15T00:28:45.145Z,14.72
2018-09-15T00:29:45.143Z,14.6
2018-09-15T00:30:44.887Z,14.57
2018-09-15T00:31:45.130Z,14.57
2018-09-15T00:32:45.123Z,14.55
2018-09-15T00:33:45.114Z,14.51
2018-09-15T00:34:45.113Z,14.47
2018-09-15T00:35:45.110Z,14.5
2018-09-15T00:36:44.594Z,14.46
2018-09-15T00:37:45.099Z,14.5
2018-09-15T00:38:45.088Z,14.35
2018-09-15T00:39:45.079Z,14.22
2018-09-15T00:40:45.070Z,14.32
2018-09-15T00:41:45.211Z,14.35
2018-09-15T00:42:45.063Z,14.35
2018-09-15T00:43:44.799Z,14.2
2018-09-15T00:44:45.040Z,14.21
2018-09-15T00:45:45.035Z,14.1
2018-09-15T00:46:45.031Z,14.04
2018-09-15T00:47:45.033Z,14.1
2018-09-15T00:48:45.016Z,14.09
2018-09-15T00:49:45.038Z,14.03
2018-09-15T00:50:45.251Z,14.02
2018-09-15T00:51:44.996Z,14.02
2018-09-15T00:52:44.991Z,13.89
2018-09-15T00:53:44.993Z,13.85
2018-09-15T00:54:44.728Z,13.88
2018-09-15T00:55:44.719Z,13.84
2018-09-15T00:56:44.711Z,13.79
2018-09-15T00:57:44.962Z,13.79
2018-09-15T00:58:44.696Z,13.77
2018-09-15T00:59:44.700Z,13.66
2018-09-15T01:00:44.684Z,13.69
2018-09-15T01:01:44.679Z,13.66
2018-09-15T01:02:44.971Z,13.62
2018-09-15T01:03:44.662Z,13.63
2018-09-15T01:04:44.658Z,13.59
2018-09-15T01:05:44.899Z,13.48
2018-09-15T01:06:44.655Z,13.49
2018-09-15T01:07:44.907Z,13.52
2018-09-15T01:08:44.628Z,13.46
2018-09-15T01:09:44.883Z,13.48
2018-09-15T01:10:44.867Z,13.39
2018-09-15T01:11:44.890Z,13.46
2018-09-15T01:12:44.610Z,13.44
2018-09-15T01:13:44.846Z,13.39
2018-09-15T01:14:44.595Z,13.41
2018-09-15T01:15:44.582Z,13.36
2018-09-15T01:16:44.574Z,13.41
2018-09-15T01:17:44.820Z,13.32
2018-09-15T01:18:44.563Z,13.29
2018-09-15T01:19:44.802Z,13.26
2018-09-15T01:20:44.292Z,13.28
2018-09-15T01:21:44.787Z,13.32
2018-09-15T01:22:44.783Z,13.22
2018-09-15T01:23:44.523Z,13.22
2018-09-15T01:24:44.767Z,13.23
2018-09-15T01:25:44.508Z,13.28
2018-09-15T01:26:44.753Z,13.23
2018-09-15T01:27:44.744Z,13.22
2018-09-15T01:28:44.736Z,13.22
2018-09-15T01:29:44.481Z,13.25
2018-09-15T01:30:44.725Z,13.22
2018-09-15T01:31:44.464Z,13.28
2018-09-15T01:32:44.713Z,13.2
2018-09-15T01:33:44.701Z,13.29
2018-09-15T01:34:44.694Z,13.28
2018-09-15T01:35:44.687Z,13.26
2018-09-15T01:36:44.679Z,13.33
2018-09-15T01:37:44.671Z,13.22
2018-09-15T01:38:44.415Z,13.3
2018-09-15T01:39:44.658Z,13.22
2018-09-15T01:40:44.650Z,13.36
2018-09-15T01:41:44.643Z,13.26
2018-09-15T01:42:44.637Z,13.3
2018-09-15T01:43:44.629Z,13.26
2018-09-15T01:44:44.373Z,13.3
2018-09-15T01:45:44.613Z,13.3
2018-09-15T01:46:44.612Z,13.28
2018-09-15T01:47:44.353Z,13.25
2018-09-15T01:48:44.593Z,13.23
2018-09-15T01:49:44.334Z,13.19
2018-09-15T01:50:44.579Z,13.14
2018-09-15T01:51:44.319Z,13.15
2018-09-15T01:52:44.813Z,13.12
2018-09-15T01:53:44.561Z,13.14
2018-09-15T01:54:44.557Z,13.17
2018-09-15T01:55:44.664Z,13.14
2018-09-15T01:56:44.294Z,13.11
2018-09-15T01:57:44.842Z,13.07
2018-09-15T01:58:44.525Z,13.11
2018-09-15T01:59:44.515Z,13.03
2018-09-15T02:00:44.511Z,13.01
2018-09-15T02:01:44.507Z,13.01
2018-09-15T02:02:44.495Z,13.03
2018-09-15T02:03:44.483Z,12.97
2018-09-15T02:04:44.476Z,13.03
2018-09-15T02:05:44.471Z,13.03
2018-09-15T02:06:44.469Z,12.97
2018-09-15T02:07:44.455Z,12.97
2018-09-15T02:08:44.456Z,13
2018-09-15T02:09:44.441Z,12.93
2018-09-15T02:10:43.931Z,12.85
2018-09-15T02:11:44.425Z,12.83
2018-09-15T02:12:44.418Z,12.83
2018-09-15T02:13:44.430Z,12.85
2018-09-15T02:14:44.403Z,12.74
2018-09-15T02:15:44.398Z,12.83
2018-09-15T02:16:44.391Z,12.78
2018-09-15T02:17:44.386Z,12.75
2018-09-15T02:18:44.121Z,12.72
2018-09-15T02:19:44.116Z,12.72
2018-09-15T02:20:44.369Z,12.77
2018-09-15T02:21:44.351Z,12.71
2018-09-15T02:22:44.701Z,12.64
2018-09-15T02:23:44.085Z,12.65
2018-09-15T02:24:44.335Z,12.67
2018-09-15T02:25:44.071Z,12.6
2018-09-15T02:26:44.318Z,12.72
2018-09-15T02:27:44.055Z,12.71
2018-09-15T02:28:44.301Z,12.67
2018-09-15T02:29:44.295Z,12.67
2018-09-15T02:30:44.286Z,12.67
2018-09-15T02:31:44.285Z,12.65
2018-09-15T02:32:44.269Z,12.78
2018-09-15T02:33:44.261Z,12.77
2018-09-15T02:34:44.020Z,12.82
2018-09-15T02:35:43.995Z,12.78
2018-09-15T02:36:43.987Z,12.77
2018-09-15T02:37:44.234Z,12.79
2018-09-15T02:38:44.225Z,13
2018-09-15T02:39:43.714Z,12.83
2018-09-15T02:40:44.213Z,12.89
2018-09-15T02:41:44.210Z,12.85
2018-09-15T02:42:43.963Z,12.87
2018-09-15T02:43:43.940Z,12.77
2018-09-15T02:44:43.927Z,12.83
2018-09-15T02:45:43.921Z,12.72
2018-09-15T02:46:43.667Z,12.77
2018-09-15T02:47:43.914Z,12.74
2018-09-15T02:48:44.148Z,12.74
2018-09-15T02:49:44.142Z,12.7
2018-09-15T02:50:43.883Z,12.72
2018-09-15T02:51:44.130Z,12.72
2018-09-15T02:52:43.866Z,12.74
2018-09-15T02:53:44.112Z,12.71
2018-09-15T02:54:44.198Z,12.74
2018-09-15T02:55:44.106Z,12.71
2018-09-15T02:56:44.092Z,12.78
2018-09-15T02:57:44.089Z,12.77
2018-09-15T02:58:43.821Z,12.79
2018-09-15T02:59:44.066Z,12.71
2018-09-15T03:00:44.060Z,12.72
2018-09-15T03:01:44.052Z,12.9
2018-09-15T03:02:44.042Z,12.71
2018-09-15T03:03:44.046Z,12.68
2018-09-15T03:04:44.035Z,12.83
2018-09-15T03:05:44.025Z,12.82
2018-09-15T03:06:44.014Z,12.79
2018-09-15T03:07:44.010Z,12.72
2018-09-15T03:08:44.014Z,12.82
2018-09-15T03:09:43.740Z,12.77
2018-09-15T03:10:44.089Z,12.75
2018-09-15T03:11:43.980Z,12.74
2018-09-15T03:12:43.978Z,12.67
2018-09-15T03:13:43.961Z,12.72
2018-09-15T03:14:43.448Z,12.67
2018-09-15T03:15:43.945Z,12.68
2018-09-15T03:16:43.942Z,12.65
2018-09-15T03:17:43.943Z,12.62
2018-09-15T03:18:43.931Z,12.53
2018-09-15T03:19:43.665Z,12.53
2018-09-15T03:20:43.912Z,12.52
2018-09-15T03:21:43.906Z,12.5
2018-09-15T03:22:43.897Z,12.46
2018-09-15T03:23:43.885Z,12.46
2018-09-15T03:24:43.878Z,12.38
2018-09-15T03:25:43.878Z,12.46
2018-09-15T03:26:43.885Z,12.46
2018-09-15T03:27:43.608Z,12.45
2018-09-15T03:28:43.856Z,12.37
2018-09-15T03:29:43.837Z,12.35
2018-09-15T03:30:43.836Z,12.29
2018-09-15T03:31:43.828Z,12.34
2018-09-15T03:32:43.826Z,12.27
2018-09-15T03:33:43.302Z,12.2
2018-09-15T03:34:43.801Z,12.17
2018-09-15T03:35:43.804Z,12.17
2018-09-15T03:36:43.791Z,12.07
2018-09-15T03:37:43.775Z,12.14
2018-09-15T03:38:43.767Z,12.09
2018-09-15T03:39:43.760Z,12.12
2018-09-15T03:40:43.503Z,12.1
2018-09-15T03:41:44.221Z,12.14
2018-09-15T03:42:43.748Z,12.12
2018-09-15T03:43:43.732Z,12.07
2018-09-15T03:44:43.727Z,12.04
2018-09-15T03:45:43.712Z,12.16
2018-09-15T03:46:43.710Z,12.12
2018-09-15T03:47:43.694Z,12.07
2018-09-15T03:48:43.687Z,11.98
2018-09-15T03:49:43.685Z,12.12
2018-09-15T03:50:43.671Z,12.13
2018-09-15T03:51:43.670Z,12.1
2018-09-15T03:52:43.667Z,12.04
2018-09-15T03:53:43.651Z,12.01
2018-09-15T03:54:43.644Z,11.98
2018-09-15T03:55:43.635Z,12.01
2018-09-15T03:56:43.626Z,12.01
2018-09-15T03:57:43.616Z,11.98
2018-09-15T03:58:43.620Z,11.91
2018-09-15T03:59:43.601Z,11.98
2018-09-15T04:00:43.594Z,11.96
2018-09-15T04:01:43.585Z,11.96
2018-09-15T04:02:43.581Z,11.83
2018-09-15T04:03:43.570Z,11.78
2018-09-15T04:04:43.560Z,11.9
2018-09-15T04:05:43.552Z,11.95
2018-09-15T04:06:43.295Z,11.88
2018-09-15T04:07:43.543Z,11.85
2018-09-15T04:08:43.280Z,11.83
2018-09-15T04:09:43.268Z,11.8
2018-09-15T04:10:43.514Z,11.79
2018-09-15T04:11:43.507Z,11.82
2018-09-15T04:12:43.495Z,11.79
2018-09-15T04:13:43.495Z,11.85
2018-09-15T04:14:43.481Z,11.83
2018-09-15T04:15:43.478Z,11.78
2018-09-15T04:16:43.474Z,11.75
2018-09-15T04:17:43.458Z,11.72
2018-09-15T04:18:43.194Z,11.72
2018-09-15T04:19:43.440Z,11.7
2018-09-15T04:20:43.432Z,11.64
2018-09-15T04:21:43.174Z,11.65
2018-09-15T04:22:43.418Z,11.61
2018-09-15T04:23:43.404Z,11.55
2018-09-15T04:24:43.145Z,11.64
2018-09-15T04:25:43.143Z,11.57
2018-09-15T04:26:43.380Z,11.58
2018-09-15T04:27:43.383Z,11.6
2018-09-15T04:28:43.363Z,11.58
2018-09-15T04:29:43.359Z,11.58
2018-09-15T04:30:43.347Z,11.55
2018-09-15T04:31:43.338Z,11.6
2018-09-15T04:32:43.338Z,11.62
2018-09-15T04:33:43.330Z,11.61
2018-09-15T04:34:43.325Z,11.62
2018-09-15T04:35:43.317Z,11.54
2018-09-15T04:36:43.298Z,11.57
2018-09-15T04:37:43.289Z,11.57
2018-09-15T04:38:43.281Z,11.54
2018-09-15T04:39:43.272Z,11.52
2018-09-15T04:40:43.261Z,11.58
2018-09-15T04:41:43.356Z,11.62
2018-09-15T04:42:43.247Z,11.62
2018-09-15T04:43:43.246Z,11.75
2018-09-15T04:44:42.727Z,11.72
2018-09-15T04:45:42.969Z,11.75
2018-09-15T04:46:43.214Z,11.8
2018-09-15T04:47:43.204Z,11.79
2018-09-15T04:48:43.201Z,11.85
2018-09-15T04:49:43.189Z,11.8
2018-09-15T04:50:42.937Z,11.98
2018-09-15T04:51:43.171Z,12.01
2018-09-15T04:52:43.434Z,11.95
2018-09-15T04:53:43.160Z,11.99
2018-09-15T04:54:43.157Z,12.1
2018-09-15T04:55:43.139Z,12.17
2018-09-15T04:56:43.144Z,12.27
2018-09-15T04:57:43.123Z,12.2
2018-09-15T04:58:43.266Z,12.29
2018-09-15T04:59:43.372Z,12.45
2018-09-15T05:00:43.100Z,12.47
2018-09-15T05:01:43.094Z,12.57
2018-09-15T05:02:43.082Z,12.59
2018-09-15T05:03:43.079Z,12.64
2018-09-15T05:04:42.815Z,12.71
2018-09-15T05:05:43.066Z,12.78
2018-09-15T05:06:43.367Z,12.75
2018-09-15T05:07:43.044Z,12.9
2018-09-15T05:08:43.037Z,12.82
2018-09-15T05:09:42.777Z,12.93
2018-09-15T05:10:42.775Z,12.95
2018-09-15T05:11:43.017Z,12.92
2018-09-15T05:12:43.203Z,12.97
2018-09-15T05:13:42.997Z,13.04
2018-09-15T05:14:43.000Z,13
2018-09-15T05:15:42.986Z,12.97
2018-09-15T05:16:42.738Z,13.01
2018-09-15T05:17:42.968Z,13
2018-09-15T05:18:42.961Z,12.95
2018-09-15T05:19:42.971Z,12.95
2018-09-15T05:20:42.946Z,12.96
2018-09-15T05:21:42.936Z,12.93
2018-09-15T05:22:42.679Z,12.92
2018-09-15T05:23:42.925Z,12.95
2018-09-15T05:24:42.918Z,12.93
2018-09-15T05:25:42.913Z,12.96
2018-09-15T05:26:42.907Z,12.95
2018-09-15T05:27:42.892Z,12.95
2018-09-15T05:28:42.891Z,13
2018-09-15T05:29:42.883Z,13.04
2018-09-15T05:30:43.121Z,13.04
2018-09-15T05:31:43.072Z,13.04
2018-09-15T05:32:42.859Z,12.97
2018-09-15T05:33:42.599Z,13.11
2018-09-15T05:34:42.842Z,13.11
2018-09-15T05:35:42.842Z,13.19
2018-09-15T05:36:42.834Z,13.36
2018-09-15T05:37:42.822Z,13.46
2018-09-15T05:38:42.818Z,13.57
2018-09-15T05:39:42.848Z,13.71
2018-09-15T05:40:42.549Z,13.88
2018-09-15T05:41:42.542Z,14.04
2018-09-15T05:42:42.535Z,14.17
2018-09-15T05:43:42.779Z,14.22
2018-09-15T05:44:42.773Z,14.33
2018-09-15T05:45:42.780Z,14.58
2018-09-15T05:46:42.508Z,14.62
2018-09-15T05:47:42.762Z,14.78
2018-09-15T05:48:42.803Z,15.03
2018-09-15T05:49:42.979Z,15.23
2018-09-15T05:50:42.740Z,15.36
2018-09-15T05:51:42.479Z,15.5
2018-09-15T05:52:42.727Z,15.87
2018-09-15T05:53:42.723Z,16.01
2018-09-15T05:54:42.724Z,16.23
2018-09-15T05:55:42.726Z,16.46
2018-09-15T05:56:42.720Z,16.73
2018-09-15T05:57:42.707Z,16.93
2018-09-15T05:58:42.700Z,17.21
2018-09-15T05:59:42.693Z,17.33
2018-09-15T06:00:42.690Z,17.49
2018-09-15T06:01:42.983Z,17.78
2018-09-15T06:02:42.681Z,17.84
2018-09-15T06:03:42.682Z,18.08
2018-09-15T06:04:42.686Z,18.29
2018-09-15T06:05:42.671Z,18.5
2018-09-15T06:06:42.198Z,18.7
2018-09-15T06:07:42.178Z,18.91
2018-09-15T06:08:42.413Z,19.02
2018-09-15T06:09:42.406Z,19.32
2018-09-15T06:10:42.407Z,19.48
2018-09-15T06:11:42.406Z,19.63
2018-09-15T06:12:42.652Z,19.84
2018-09-15T06:13:42.542Z,20.02
2018-09-15T06:14:42.401Z,20.2
2018-09-15T06:15:42.640Z,20.21
2018-09-15T06:16:42.390Z,20.41
2018-09-15T06:17:42.640Z,20.54
2018-09-15T06:18:42.636Z,20.7
2018-09-15T06:19:42.637Z,20.87
2018-09-15T06:20:42.637Z,21.01
2018-09-15T06:21:42.640Z,21.12
2018-09-15T06:22:42.630Z,21.27
2018-09-15T06:23:42.637Z,21.37
2018-09-15T06:24:42.631Z,21.47
2018-09-15T06:25:42.629Z,21.61
2018-09-15T06:26:42.628Z,21.65
2018-09-15T06:27:42.631Z,21.84
2018-09-15T06:28:42.632Z,21.91
2018-09-15T06:29:42.625Z,22.05
2018-09-15T06:30:42.631Z,22.1
2018-09-15T06:31:42.626Z,22.21
2018-09-15T06:32:42.623Z,22.33
2018-09-15T06:33:42.625Z,22.46
2018-09-15T06:34:42.626Z,22.54
2018-09-15T06:35:42.626Z,22.58
2018-09-15T06:36:42.630Z,22.64
2018-09-15T06:37:42.630Z,22.67
2018-09-15T06:38:42.637Z,22.72
2018-09-15T06:39:42.381Z,22.77
2018-09-15T06:40:42.631Z,22.83
2018-09-15T06:41:42.634Z,22.91
2018-09-15T06:42:42.380Z,22.95
2018-09-15T06:43:42.637Z,23
2018-09-15T06:44:42.638Z,22.95
2018-09-15T06:45:43.054Z,23.1
2018-09-15T06:46:42.634Z,23.09
2018-09-15T06:47:42.643Z,23.17
2018-09-15T06:48:42.385Z,23.19
2018-09-15T06:49:42.644Z,23.2
2018-09-15T06:50:42.636Z,23.46
2018-09-15T06:51:42.656Z,23.51
2018-09-15T06:52:42.139Z,23.57
2018-09-15T06:53:42.501Z,23.66
2018-09-15T06:54:42.649Z,23.76
2018-09-15T06:55:42.400Z,23.9
2018-09-15T06:56:42.653Z,23.79
2018-09-15T06:57:42.660Z,23.98
2018-09-15T06:58:42.153Z,24.02
2018-09-15T06:59:42.664Z,24.02
2018-09-15T07:00:42.691Z,24.03
2018-09-15T07:01:42.676Z,24.15
2018-09-15T07:02:42.416Z,24.28
2018-09-15T07:03:42.666Z,24.37
2018-09-15T07:04:42.673Z,24.49
2018-09-15T07:05:42.671Z,24.58
2018-09-15T07:06:42.681Z,24.73
2018-09-15T07:07:42.685Z,24.85
2018-09-15T07:08:42.689Z,24.98
2018-09-15T07:09:42.441Z,24.95
2018-09-15T07:10:42.692Z,25.08
2018-09-15T07:11:42.697Z,25.06
2018-09-15T07:12:42.447Z,25.14
2018-09-15T07:13:42.705Z,25.15
2018-09-15T07:14:42.714Z,25.17
2018-09-15T07:15:42.715Z,25.33
2018-09-15T07:16:42.718Z,25.55
2018-09-15T07:17:42.722Z,25.62
2018-09-15T07:18:42.729Z,25.76
2018-09-15T07:19:42.480Z,25.76
2018-09-15T07:20:42.744Z,25.85
2018-09-15T07:21:42.764Z,25.8
2018-09-15T07:22:42.504Z,25.83
2018-09-15T07:23:42.755Z,25.94
2018-09-15T07:24:44.442Z,25.85
2018-09-15T07:25:42.516Z,25.83
2018-09-15T07:26:42.775Z,25.94
2018-09-15T07:27:42.787Z,25.97
2018-09-15T07:28:42.791Z,25.98
2018-09-15T07:29:42.793Z,26.1
2018-09-15T07:30:42.807Z,26.28
2018-09-15T07:31:42.889Z,26.33
2018-09-15T07:32:42.821Z,26.39
2018-09-15T07:33:42.821Z,26.44
2018-09-15T07:34:42.650Z,26.44
2018-09-15T07:35:42.843Z,26.43
2018-09-15T07:36:42.848Z,26.39
2018-09-15T07:37:43.169Z,26.43
2018-09-15T07:38:42.860Z,26.51
2018-09-15T07:39:42.867Z,26.45
2018-09-15T07:40:42.876Z,26.54
2018-09-15T07:41:42.884Z,26.58
2018-09-15T07:42:42.641Z,26.66
2018-09-15T07:43:42.646Z,26.58
2018-09-15T07:44:43.024Z,26.44
2018-09-15T07:45:42.915Z,26.33
2018-09-15T07:46:42.920Z,26.25
2018-09-15T07:47:42.933Z,26.25
2018-09-15T07:48:42.933Z,26.23
2018-09-15T07:49:42.944Z,26.25
2018-09-15T07:50:42.950Z,26.25
2018-09-15T07:51:43.255Z,26.23
2018-09-15T07:52:42.965Z,26.2
2018-09-15T07:53:42.969Z,26.09
2018-09-15T07:54:42.976Z,25.99
2018-09-15T07:55:42.987Z,25.98
2018-09-15T07:56:42.990Z,26.07
2018-09-15T07:57:43.291Z,25.94
2018-09-15T07:58:43.006Z,25.94
2018-09-15T07:59:43.012Z,25.82
2018-09-15T08:00:43.022Z,25.73
2018-09-15T08:01:42.771Z,25.62
2018-09-15T08:02:43.029Z,25.47
2018-09-15T08:03:43.038Z,25.32
2018-09-15T08:04:43.046Z,25.09
2018-09-15T08:05:43.051Z,24.87
2018-09-15T08:06:43.052Z,24.69
2018-09-15T08:07:43.064Z,24.55
2018-09-15T08:08:43.066Z,24.24
2018-09-15T08:09:43.069Z,24.08
2018-09-15T08:10:43.076Z,23.87
2018-09-15T08:11:43.082Z,23.68
2018-09-15T08:12:42.833Z,23.6
2018-09-15T08:13:42.837Z,23.33
2018-09-15T08:14:43.093Z,23.2
2018-09-15T08:15:43.098Z,23
2018-09-15T08:16:43.102Z,22.86
2018-09-15T08:17:42.859Z,22.67
2018-09-15T08:18:43.124Z,22.47
2018-09-15T08:19:43.103Z,22.4
2018-09-15T08:20:43.019Z,22.37
2018-09-15T08:21:43.108Z,22.27
2018-09-15T08:22:43.113Z,22.12
2018-09-15T08:23:43.111Z,22.06
2018-09-15T08:24:43.111Z,21.82
2018-09-15T08:25:43.112Z,21.71
2018-09-15T08:26:42.863Z,21.52
2018-09-15T08:27:43.167Z,21.42
2018-09-15T08:28:43.117Z,21.31
2018-09-15T08:29:43.112Z,21.34
2018-09-15T08:30:42.862Z,21.28
2018-09-15T08:31:43.123Z,21.25
2018-09-15T08:32:43.123Z,21.21
2018-09-15T08:33:43.118Z,21.19
2018-09-15T08:34:43.110Z,21.13
2018-09-15T08:35:43.111Z,21.14
2018-09-15T08:36:43.113Z,21.21
2018-09-15T08:37:43.393Z,21.19
2018-09-15T08:38:43.103Z,21.19
2018-09-15T08:39:43.108Z,21.07
2018-09-15T08:40:43.112Z,21.14
2018-09-15T08:41:43.104Z,21.12
2018-09-15T08:42:43.104Z,21.03
2018-09-15T08:43:43.098Z,21.06
2018-09-15T08:44:43.105Z,20.97
2018-09-15T08:45:43.100Z,20.99
2018-09-15T08:46:43.095Z,20.92
2018-09-15T08:47:43.097Z,20.94
2018-09-15T08:48:43.098Z,20.98
2018-09-15T08:49:43.092Z,20.97
2018-09-15T08:50:43.106Z,20.92
2018-09-15T08:51:43.088Z,20.98
2018-09-15T08:52:42.831Z,20.98
2018-09-15T08:53:43.079Z,20.89
2018-09-15T08:54:43.079Z,20.89
2018-09-15T08:55:43.077Z,20.88
2018-09-15T08:56:42.825Z,20.77
2018-09-15T08:57:42.821Z,20.72
2018-09-15T08:58:43.074Z,20.67
2018-09-15T08:59:42.820Z,20.69
2018-09-15T09:00:42.814Z,20.7
2018-09-15T09:01:43.069Z,20.66
2018-09-15T09:02:42.813Z,20.69
2018-09-15T09:03:42.876Z,20.67
2018-09-15T09:04:43.058Z,20.69
2018-09-15T09:05:43.062Z,20.66
2018-09-15T09:06:43.058Z,20.62
2018-09-15T09:07:43.052Z,20.67
2018-09-15T09:08:43.302Z,20.55
2018-09-15T09:09:43.048Z,20.67
2018-09-15T09:10:43.047Z,20.61
2018-09-15T09:11:43.046Z,20.59
2018-09-15T09:12:43.040Z,20.67
2018-09-15T09:13:43.047Z,20.59
2018-09-15T09:14:42.783Z,20.64
2018-09-15T09:15:43.038Z,20.76
2018-09-15T09:16:43.046Z,20.69
2018-09-15T09:17:43.029Z,20.69
2018-09-15T09:18:43.030Z,20.82
2018-09-15T09:19:42.777Z,20.85
2018-09-15T09:20:43.024Z,20.77
2018-09-15T09:21:43.021Z,20.8
2018-09-15T09:22:43.035Z,20.82
2018-09-15T09:23:43.016Z,20.88
2018-09-15T09:24:43.015Z,20.82
2018-09-15T09:25:43.051Z,20.84
2018-09-15T09:26:43.270Z,20.84
2018-09-15T09:27:42.755Z,20.92
2018-09-15T09:28:42.752Z,20.85
2018-09-15T09:29:43.001Z,20.94
2018-09-15T09:30:42.752Z,20.97
2018-09-15T09:31:43.006Z,20.97
2018-09-15T09:32:42.995Z,21.01
2018-09-15T09:33:42.991Z,21.03
2018-09-15T09:34:42.993Z,20.98
2018-09-15T09:35:42.989Z,20.95
2018-09-15T09:36:42.734Z,20.94
2018-09-15T09:37:42.730Z,20.92
2018-09-15T09:38:42.735Z,20.92
2018-09-15T09:39:42.730Z,20.82
2018-09-15T09:40:42.983Z,20.82
2018-09-15T09:41:42.977Z,20.69
2018-09-15T09:42:42.972Z,20.7
2018-09-15T09:43:42.972Z,20.79
2018-09-15T09:44:42.967Z,20.88
2018-09-15T09:45:42.969Z,20.89
2018-09-15T09:46:42.961Z,20.98
2018-09-15T09:47:42.983Z,21.09
2018-09-15T09:48:42.959Z,21.16
2018-09-15T09:49:42.957Z,21.13
2018-09-15T09:50:42.954Z,21.14
2018-09-15T09:51:42.952Z,21.19
2018-09-15T09:52:42.953Z,21.16
2018-09-15T09:53:42.947Z,21.13
2018-09-15T09:54:42.945Z,21.17
2018-09-15T09:55:42.940Z,21.19
2018-09-15T09:56:42.943Z,21.35
2018-09-15T09:57:42.938Z,21.42
2018-09-15T09:58:42.934Z,21.49
2018-09-15T09:59:42.935Z,21.61
2018-09-15T10:00:42.936Z,21.61
2018-09-15T10:01:42.933Z,21.62
2018-09-15T10:02:42.927Z,21.62
2018-09-15T10:03:42.673Z,21.56
2018-09-15T10:04:42.925Z,21.71
2018-09-15T10:05:42.920Z,21.72
2018-09-15T10:06:42.922Z,21.82
2018-09-15T10:07:42.965Z,21.82
2018-09-15T10:08:42.418Z,21.92
2018-09-15T10:09:42.915Z,21.91
2018-09-15T10:10:42.911Z,22.02
2018-09-15T10:11:42.915Z,22.12
2018-09-15T10:12:42.936Z,22.12
2018-09-15T10:13:42.905Z,22.27
2018-09-15T10:14:42.907Z,22.31
2018-09-15T10:15:42.915Z,22.31
2018-09-15T10:16:42.652Z,22.42
2018-09-15T10:17:42.647Z,22.35
2018-09-15T10:18:42.912Z,22.35
2018-09-15T10:19:42.900Z,22.31
2018-09-15T10:20:42.652Z,22.46
2018-09-15T10:21:42.869Z,22.49
2018-09-15T10:22:42.897Z,22.47
2018-09-15T10:23:42.890Z,22.52
2018-09-15T10:24:42.886Z,22.54
2018-09-15T10:25:42.888Z,22.52
2018-09-15T10:26:42.891Z,22.47
2018-09-15T10:27:42.889Z,22.52
2018-09-15T10:28:42.882Z,22.57
2018-09-15T10:29:42.884Z,22.47
2018-09-15T10:30:42.628Z,22.49
2018-09-15T10:31:42.632Z,22.52
2018-09-15T10:32:42.877Z,22.55
2018-09-15T10:33:42.874Z,22.61
2018-09-15T10:34:42.874Z,22.73
2018-09-15T10:35:42.877Z,22.88
2018-09-15T10:36:42.875Z,22.85
2018-09-15T10:37:42.874Z,22.85
2018-09-15T10:38:42.881Z,22.9
2018-09-15T10:39:42.874Z,23
2018-09-15T10:40:42.617Z,22.97
2018-09-15T10:41:42.869Z,22.98
2018-09-15T10:42:42.867Z,23.12
2018-09-15T10:43:42.863Z,23.19
2018-09-15T10:44:42.869Z,23.25
2018-09-15T10:45:42.871Z,23.5
2018-09-15T10:46:43.009Z,23.58
2018-09-15T10:47:42.863Z,23.66
2018-09-15T10:48:42.862Z,23.72
2018-09-15T10:49:42.872Z,23.79
2018-09-15T10:50:42.867Z,23.79
2018-09-15T10:51:42.858Z,23.87
2018-09-15T10:52:42.864Z,23.98
2018-09-15T10:53:42.860Z,23.87
2018-09-15T10:54:42.602Z,23.85
2018-09-15T10:55:42.863Z,23.76
2018-09-15T10:56:42.859Z,23.7
2018-09-15T10:57:42.856Z,23.63
2018-09-15T10:58:42.859Z,23.57
2018-09-15T10:59:42.898Z,23.6
2018-09-15T11:00:43.006Z,23.65
2018-09-15T11:01:42.848Z,23.55
2018-09-15T11:02:42.849Z,23.55
2018-09-15T11:03:42.856Z,23.6
2018-09-15T11:04:42.853Z,23.61
2018-09-15T11:05:42.950Z,23.58
2018-09-15T11:06:42.596Z,23.69
2018-09-15T11:07:42.848Z,23.6
2018-09-15T11:08:42.857Z,23.46
2018-09-15T11:09:42.852Z,23.46
2018-09-15T11:10:42.592Z,23.47
2018-09-15T11:11:42.848Z,23.39
2018-09-15T11:12:42.592Z,23.42
2018-09-15T11:13:43.394Z,23.47
2018-09-15T11:14:42.842Z,23.5
2018-09-15T11:15:42.590Z,23.5
2018-09-15T11:16:42.906Z,23.54
2018-09-15T11:17:42.837Z,23.57
2018-09-15T11:18:42.846Z,23.66
2018-09-15T11:19:42.840Z,23.83
2018-09-15T11:20:42.835Z,23.84
2018-09-15T11:21:42.837Z,23.84
2018-09-15T11:22:42.883Z,23.76
2018-09-15T11:23:42.833Z,23.94
2018-09-15T11:24:42.834Z,23.98
2018-09-15T11:25:42.834Z,24.09
2018-09-15T11:26:42.581Z,24.12
2018-09-15T11:27:42.833Z,24.15
2018-09-15T11:28:43.173Z,24.2
2018-09-15T11:29:42.833Z,24.4
2018-09-15T11:30:42.837Z,24.43
2018-09-15T11:31:42.833Z,24.5
2018-09-15T11:32:42.831Z,24.52
2018-09-15T11:33:42.844Z,24.39
2018-09-15T11:34:42.830Z,24.4
2018-09-15T11:35:42.834Z,24.28
2018-09-15T11:36:42.831Z,24.34
2018-09-15T11:37:42.833Z,24.27
2018-09-15T11:38:42.834Z,24.18
2018-09-15T11:39:42.577Z,24.15
2018-09-15T11:40:42.829Z,24.13
2018-09-15T11:41:42.829Z,24.1
2018-09-15T11:42:42.576Z,23.94
2018-09-15T11:43:42.686Z,23.94
2018-09-15T11:44:43.086Z,23.83
2018-09-15T11:45:42.827Z,23.88
2018-09-15T11:46:42.825Z,23.8
2018-09-15T11:47:42.835Z,23.8
2018-09-15T11:48:42.827Z,23.84
2018-09-15T11:49:42.830Z,23.8
2018-09-15T11:50:42.830Z,23.78
2018-09-15T11:51:42.826Z,23.8
2018-09-15T11:52:42.824Z,23.78
2018-09-15T11:53:42.842Z,23.83
2018-09-15T11:54:42.576Z,23.83
2018-09-15T11:55:42.834Z,23.78
2018-09-15T11:56:42.826Z,23.83
2018-09-15T11:57:42.574Z,23.79
2018-09-15T11:58:42.570Z,23.85
2018-09-15T11:59:42.821Z,23.98
2018-09-15T12:00:42.823Z,24.06
2018-09-15T12:01:42.317Z,24.13
2018-09-15T12:02:42.824Z,24.22
2018-09-15T12:03:42.819Z,24.21
2018-09-15T12:04:42.822Z,24.3
2018-09-15T12:05:42.818Z,24.34
2018-09-15T12:06:42.816Z,24.42
2018-09-15T12:07:42.906Z,24.52
2018-09-15T12:08:42.816Z,24.65
2018-09-15T12:09:42.571Z,24.67
2018-09-15T12:10:42.569Z,24.69
2018-09-15T12:11:42.832Z,24.71
2018-09-15T12:12:42.816Z,24.83
2018-09-15T12:13:42.815Z,24.77
2018-09-15T12:14:42.819Z,24.81
2018-09-15T12:15:43.063Z,24.84
2018-09-15T12:16:42.564Z,24.95
2018-09-15T12:17:42.865Z,24.9
2018-09-15T12:18:42.565Z,24.99
2018-09-15T12:19:42.816Z,24.95
2018-09-15T12:20:42.826Z,24.91
2018-09-15T12:21:42.951Z,24.91
2018-09-15T12:22:42.565Z,24.93
2018-09-15T12:23:42.566Z,24.87
2018-09-15T12:24:42.817Z,24.9
2018-09-15T12:25:42.818Z,24.95
2018-09-15T12:26:42.570Z,24.96
2018-09-15T12:27:42.877Z,24.99
2018-09-15T12:28:42.313Z,25.03
2018-09-15T12:29:42.816Z,24.99
2018-09-15T12:30:42.822Z,25.09
2018-09-15T12:31:42.824Z,25.05
2018-09-15T12:32:42.817Z,25.09
2018-09-15T12:33:43.037Z,25.08
2018-09-15T12:34:42.821Z,25.17
2018-09-15T12:35:42.820Z,25.27
2018-09-15T12:36:42.819Z,25.2
2018-09-15T12:37:42.818Z,25.3
2018-09-15T12:38:42.825Z,25.3
2018-09-15T12:39:42.568Z,25.38
2018-09-15T12:40:42.820Z,25.3
2018-09-15T12:41:42.828Z,25.3
2018-09-15T12:42:42.571Z,25.32
2018-09-15T12:43:42.570Z,25.18
2018-09-15T12:44:42.823Z,25.14
2018-09-15T12:45:42.573Z,25.1
2018-09-15T12:46:42.821Z,25.06
2018-09-15T12:47:42.572Z,24.95
2018-09-15T12:48:42.575Z,24.95
2018-09-15T12:49:42.831Z,24.85
2018-09-15T12:50:42.827Z,24.96
2018-09-15T12:51:42.826Z,24.96
2018-09-15T12:52:42.828Z,24.93
2018-09-15T12:53:42.828Z,24.91
2018-09-15T12:54:42.828Z,25.02
2018-09-15T12:55:42.828Z,25.02